createdAt,value
2018-09-14T07:11:04.284Z,356
2018-09-14T07:11:25.347Z,348
2018-09-14T07:11:45.961Z,356
2018-09-14T07:12:07.187Z,364
2018-09-14T07:12:27.336Z,400
2018-09-14T07:12:47.598Z,432
2018-09-14T07:13:08.144Z,476
2018-09-14T07:13:28.487Z,488
2018-09-14T07:13:48.748Z,460
2018-09-14T07:14:09.006Z,460
2018-09-14T07:14:29.199Z,436
2018-09-14T07:14:49.365Z,440
2018-09-14T07:15:09.492Z,460
2018-09-14T07:15:29.794Z,476
2018-09-14T07:15:50.726Z,472
2018-09-14T07:16:11.064Z,452
2018-09-14T07:16:33.562Z,448
2018-09-14T07:16:53.763Z,424
2018-09-14T07:17:14.093Z,416
2018-09-14T07:17:34.318Z,404
2018-09-14T07:17:54.599Z,408
2018-09-14T07:18:14.780Z,416
2018-09-14T07:18:35.255Z,424
2018-09-14T07:18:55.618Z,436
2018-09-14T07:19:15.888Z,484
2018-09-14T07:19:36.046Z,524
2018-09-14T07:19:56.210Z,540
2018-09-14T07:20:16.395Z,548
2018-09-14T07:20:36.678Z,560
2018-09-14T07:20:56.871Z,552
2018-09-14T07:21:17.013Z,552
2018-09-14T07:21:37.400Z,548
2018-09-14T07:21:57.913Z,528
2018-09-14T07:22:18.689Z,520
2018-09-14T07:22:38.956Z,508
2018-09-14T07:22:59.172Z,512
2018-09-14T07:23:19.452Z,484
2018-09-14T07:23:39.680Z,460
2018-09-14T07:23:59.922Z,448
2018-09-14T07:24:20.366Z,452
2018-09-14T07:24:40.852Z,436
2018-09-14T07:25:01.193Z,404
2018-09-14T07:25:22.098Z,376
2018-09-14T07:25:42.290Z,368
2018-09-14T07:26:02.507Z,388
2018-09-14T07:26:22.780Z,392
2018-09-14T07:26:43.050Z,412
2018-09-14T07:27:03.230Z,404
2018-09-14T07:27:24.168Z,388
2018-09-14T07:27:44.414Z,396
2018-09-14T07:28:04.631Z,396
2018-09-14T07:28:24.833Z,372
2018-09-14T07:28:45.265Z,336
2018-09-14T07:29:05.988Z,348
2018-09-14T07:29:26.311Z,352
2018-09-14T07:29:46.531Z,344
2018-09-14T07:30:06.707Z,320
2018-09-14T07:30:27.058Z,304
2018-09-14T07:30:47.309Z,300
2018-09-14T07:31:07.715Z,316
2018-09-14T07:31:28.067Z,340
2018-09-14T07:31:48.255Z,364
2018-09-14T07:32:08.514Z,392
2018-09-14T07:32:29.310Z,440
2018-09-14T07:32:49.759Z,468
2018-09-14T07:33:09.990Z,472
2018-09-14T07:33:30.152Z,472
2018-09-14T07:33:50.323Z,464
2018-09-14T07:34:10.478Z,468
2018-09-14T07:34:30.689Z,460
2018-09-14T07:34:50.847Z,472
2018-09-14T07:35:11.023Z,472
2018-09-14T07:35:31.367Z,472
2018-09-14T07:35:51.639Z,460
2018-09-14T07:36:11.896Z,448
2018-09-14T07:36:32.231Z,444
2018-09-14T07:36:52.493Z,448
2018-09-14T07:37:12.753Z,472
2018-09-14T07:37:33.098Z,488
2018-09-14T07:37:53.301Z,492
2018-09-14T07:38:13.481Z,500
2018-09-14T07:38:33.790Z,496
2018-09-14T07:38:53.928Z,472
2018-09-14T07:39:14.205Z,452
2018-09-14T07:39:34.492Z,464
2018-09-14T07:39:54.636Z,500
2018-09-14T07:40:14.966Z,532
2018-09-14T07:40:35.126Z,552
2018-09-14T07:40:55.347Z,548
2018-09-14T07:41:15.616Z,556
2018-09-14T07:41:35.816Z,528
2018-09-14T07:41:56.184Z,476
2018-09-14T07:42:16.505Z,440
2018-09-14T07:42:36.905Z,424
2018-09-14T07:42:57.267Z,416
2018-09-14T07:43:17.610Z,424
2018-09-14T07:43:37.849Z,420
2018-09-14T07:43:58.194Z,412
2018-09-14T07:44:19.161Z,436
2018-09-14T07:44:39.471Z,452
2018-09-14T07:44:59.689Z,460
2018-09-14T07:45:20.119Z,488
2018-09-14T07:45:40.371Z,524
2018-09-14T07:46:00.600Z,532
2018-09-14T07:46:20.898Z,532
2018-09-14T07:46:41.128Z,528
2018-09-14T07:47:01.999Z,512
2018-09-14T07:47:22.390Z,492
2018-09-14T07:47:42.572Z,492
2018-09-14T07:48:02.734Z,492
2018-09-14T07:48:23.057Z,500
2018-09-14T07:48:43.367Z,504
2018-09-14T07:49:03.557Z,528
2018-09-14T07:49:23.702Z,564
2018-09-14T07:49:43.951Z,560
2018-09-14T07:50:04.184Z,544
2018-09-14T07:50:24.432Z,544
2018-09-14T07:50:44.641Z,552
2018-09-14T07:51:04.854Z,600
2018-09-14T07:51:25.136Z,652
2018-09-14T07:51:45.320Z,676
2018-09-14T07:52:05.481Z,668
2018-09-14T07:52:25.682Z,672
2018-09-14T07:52:45.983Z,680
2018-09-14T07:53:06.218Z,688
2018-09-14T07:53:26.425Z,700
2018-09-14T07:53:46.915Z,728
2018-09-14T07:54:07.368Z,712
2018-09-14T07:54:27.821Z,712
2018-09-14T07:54:48.228Z,748
2018-09-14T07:55:08.485Z,780
2018-09-14T07:55:29.146Z,796
2018-09-14T07:55:49.533Z,800
2018-09-14T07:56:09.823Z,800
2018-09-14T07:56:30.094Z,788
2018-09-14T07:56:50.444Z,776
2018-09-14T07:57:10.730Z,752
2018-09-14T07:57:31.179Z,760
2018-09-14T07:57:51.361Z,768
2018-09-14T07:58:11.598Z,796
2018-09-14T07:58:31.833Z,824
2018-09-14T07:58:52.177Z,856
2018-09-14T07:59:12.419Z,880
2018-09-14T07:59:32.701Z,884
2018-09-14T07:59:53.072Z,876
2018-09-14T08:00:13.474Z,904
2018-09-14T08:00:33.736Z,904
2018-09-14T08:00:53.923Z,900
2018-09-14T08:01:14.313Z,956
2018-09-14T08:01:34.596Z,988
2018-09-14T08:01:54.918Z,1020
2018-09-14T08:02:15.230Z,1008
2018-09-14T08:02:35.553Z,976
2018-09-14T08:02:55.826Z,1008
2018-09-14T08:03:15.999Z,1072
2018-09-14T08:03:36.349Z,1132
2018-09-14T08:03:56.751Z,1128
2018-09-14T08:04:17.008Z,1112
2018-09-14T08:04:37.301Z,1096
2018-09-14T08:04:57.466Z,1072
2018-09-14T08:05:17.660Z,1052
2018-09-14T08:05:38.452Z,1024
2018-09-14T08:05:58.722Z,1000
2018-09-14T08:06:18.897Z,1008
2018-09-14T08:06:39.091Z,976
2018-09-14T08:06:59.308Z,936
2018-09-14T08:07:19.477Z,924
2018-09-14T08:07:39.650Z,884
2018-09-14T08:07:59.789Z,816
2018-09-14T08:08:19.965Z,760
2018-09-14T08:08:40.131Z,748
2018-09-14T08:09:00.425Z,756
2018-09-14T08:09:20.637Z,788
2018-09-14T08:09:40.937Z,800
2018-09-14T08:10:01.135Z,780
2018-09-14T08:10:21.339Z,768
2018-09-14T08:10:41.542Z,820
2018-09-14T08:11:01.709Z,932
2018-09-14T08:11:21.868Z,996
2018-09-14T08:11:42.166Z,1080
2018-09-14T08:12:02.582Z,1236
2018-09-14T08:12:23.319Z,1316
2018-09-14T08:12:43.582Z,1324
2018-09-14T08:13:03.822Z,1308
2018-09-14T08:13:24.093Z,1240
2018-09-14T08:13:44.374Z,1104
2018-09-14T08:14:04.555Z,984
2018-09-14T08:14:24.703Z,964
2018-09-14T08:14:44.870Z,1072
2018-09-14T08:15:05.062Z,1156
2018-09-14T08:15:25.423Z,1156
2018-09-14T08:15:45.689Z,1168
2018-09-14T08:16:05.871Z,1176
2018-09-14T08:16:26.058Z,1128
2018-09-14T08:16:46.367Z,1076
2018-09-14T08:17:06.549Z,1024
2018-09-14T08:17:26.721Z,976
2018-09-14T08:17:46.901Z,936
2018-09-14T08:18:07.075Z,944
2018-09-14T08:18:27.288Z,964
2018-09-14T08:18:47.441Z,852
2018-09-14T08:19:07.606Z,776
2018-09-14T08:19:27.763Z,720
2018-09-14T08:19:47.986Z,676
2018-09-14T08:20:08.263Z,684
2018-09-14T08:20:28.439Z,680
2018-09-14T08:20:48.684Z,664
2018-09-14T08:21:08.860Z,652
2018-09-14T08:21:29.388Z,660
2018-09-14T08:21:49.909Z,684
2018-09-14T08:22:09.920Z,688
2018-09-14T08:22:30.178Z,640
2018-09-14T08:22:50.387Z,636
2018-09-14T08:23:10.548Z,676
2018-09-14T08:23:30.866Z,724
2018-09-14T08:23:51.027Z,772
2018-09-14T08:24:11.175Z,804
2018-09-14T08:24:31.349Z,792
2018-09-14T08:24:51.570Z,748
2018-09-14T08:25:11.702Z,692
2018-09-14T08:25:31.915Z,656
2018-09-14T08:25:52.083Z,644
2018-09-14T08:26:12.249Z,644
2018-09-14T08:26:32.420Z,644
2018-09-14T08:26:52.807Z,660
2018-09-14T08:27:13.004Z,688
2018-09-14T08:27:33.176Z,708
2018-09-14T08:27:53.360Z,696
2018-09-14T08:28:13.576Z,692
2018-09-14T08:28:33.737Z,756
2018-09-14T08:28:53.908Z,776
2018-09-14T08:29:14.147Z,792
2018-09-14T08:29:34.440Z,752
2018-09-14T08:29:54.599Z,712
2018-09-14T08:30:14.896Z,704
2018-09-14T08:30:35.084Z,696
2018-09-14T08:30:55.323Z,680
2018-09-14T08:31:15.499Z,656
2018-09-14T08:31:35.660Z,640
2018-09-14T08:31:55.774Z,632
2018-09-14T08:32:15.977Z,620
2018-09-14T08:32:36.111Z,596
2018-09-14T08:32:56.287Z,564
2018-09-14T08:33:16.455Z,544
2018-09-14T08:33:36.843Z,532
2018-09-14T08:33:56.973Z,528
2018-09-14T08:34:17.153Z,556
2018-09-14T08:34:37.349Z,572
2018-09-14T08:34:57.499Z,584
2018-09-14T08:35:17.666Z,588
2018-09-14T08:35:37.806Z,592
2018-09-14T08:35:57.939Z,608
2018-09-14T08:36:18.075Z,592
2018-09-14T08:36:38.261Z,568
2018-09-14T08:36:58.422Z,552
2018-09-14T08:37:18.636Z,552
2018-09-14T08:37:38.827Z,564
2018-09-14T08:37:59.075Z,588
2018-09-14T08:38:19.210Z,616
2018-09-14T08:38:39.357Z,648
2018-09-14T08:38:59.526Z,660
2018-09-14T08:39:19.748Z,684
2018-09-14T08:39:39.955Z,676
2018-09-14T08:40:00.318Z,676
2018-09-14T08:40:20.479Z,692
2018-09-14T08:40:40.638Z,692
2018-09-14T08:41:00.821Z,680
2018-09-14T08:41:21.105Z,680
2018-09-14T08:41:41.367Z,704
2018-09-14T08:42:01.516Z,760
2018-09-14T08:42:21.722Z,832
2018-09-14T08:42:41.934Z,916
2018-09-14T08:43:02.125Z,980
2018-09-14T08:43:22.299Z,1012
2018-09-14T08:43:42.568Z,1048
2018-09-14T08:44:02.826Z,1084
2018-09-14T08:44:23.066Z,1116
2018-09-14T08:44:43.278Z,1160
2018-09-14T08:45:03.576Z,1224
2018-09-14T08:45:23.752Z,1296
2018-09-14T08:45:44.151Z,1344
2018-09-14T08:46:04.337Z,1356
2018-09-14T08:46:24.517Z,1312
2018-09-14T08:46:44.741Z,1236
2018-09-14T08:47:04.900Z,1156
2018-09-14T08:47:25.092Z,1084
2018-09-14T08:47:45.279Z,1044
2018-09-14T08:48:05.504Z,1028
2018-09-14T08:48:25.663Z,992
2018-09-14T08:48:45.844Z,1004
2018-09-14T08:49:06.033Z,1048
2018-09-14T08:49:26.212Z,1100
2018-09-14T08:49:46.387Z,1148
2018-09-14T08:50:06.609Z,1092
2018-09-14T08:50:26.803Z,1036
2018-09-14T08:50:46.965Z,972
2018-09-14T08:51:07.231Z,912
2018-09-14T08:51:27.503Z,844
2018-09-14T08:51:47.751Z,780
2018-09-14T08:52:07.907Z,732
2018-09-14T08:52:28.057Z,708
2018-09-14T08:52:48.252Z,700
2018-09-14T08:53:08.448Z,664
2018-09-14T08:53:28.663Z,656
2018-09-14T08:53:48.866Z,636
2018-09-14T08:54:09.067Z,620
2018-09-14T08:54:29.349Z,632
2018-09-14T08:54:49.488Z,644
2018-09-14T08:55:09.683Z,704
2018-09-14T08:55:29.856Z,740
2018-09-14T08:55:50.012Z,740
2018-09-14T08:56:10.270Z,740
2018-09-14T08:56:30.464Z,768
2018-09-14T08:56:50.601Z,820
2018-09-14T08:57:10.757Z,896
2018-09-14T08:57:30.902Z,996
2018-09-14T08:57:51.054Z,1032
2018-09-14T08:58:11.515Z,980
2018-09-14T08:58:31.534Z,996
2018-09-14T08:58:51.696Z,1032
2018-09-14T08:59:11.869Z,1080
2018-09-14T08:59:32.024Z,1088
2018-09-14T08:59:52.157Z,1060
2018-09-14T09:00:12.307Z,996
2018-09-14T09:00:32.531Z,924
2018-09-14T09:00:52.759Z,872
2018-09-14T09:01:12.902Z,856
2018-09-14T09:01:33.067Z,864
2018-09-14T09:01:53.224Z,884
2018-09-14T09:02:13.407Z,884
2018-09-14T09:02:33.569Z,884
2018-09-14T09:02:53.715Z,900
2018-09-14T09:03:13.872Z,888
2018-09-14T09:03:34.041Z,896
2018-09-14T09:03:54.242Z,888
2018-09-14T09:04:14.460Z,884
2018-09-14T09:04:34.644Z,860
2018-09-14T09:04:54.827Z,820
2018-09-14T09:05:14.974Z,792
2018-09-14T09:05:35.133Z,764
2018-09-14T09:05:55.289Z,736
2018-09-14T09:06:15.447Z,728
2018-09-14T09:06:36.532Z,716
2018-09-14T09:06:56.683Z,716
2018-09-14T09:07:16.916Z,700
2018-09-14T09:07:37.267Z,696
2018-09-14T09:07:57.406Z,672
2018-09-14T09:08:17.570Z,636
2018-09-14T09:08:37.748Z,604
2018-09-14T09:08:57.914Z,572
2018-09-14T09:09:18.183Z,548
2018-09-14T09:09:38.287Z,540
2018-09-14T09:09:58.431Z,556
2018-09-14T09:10:18.594Z,576
2018-09-14T09:10:38.788Z,596
2018-09-14T09:10:58.952Z,612
2018-09-14T09:11:19.171Z,620
2018-09-14T09:11:39.336Z,624
2018-09-14T09:11:59.490Z,628
2018-09-14T09:12:19.660Z,620
2018-09-14T09:12:39.813Z,604
2018-09-14T09:13:00.000Z,604
2018-09-14T09:13:20.171Z,612
2018-09-14T09:13:40.328Z,640
2018-09-14T09:14:00.504Z,668
2018-09-14T09:14:20.679Z,684
2018-09-14T09:14:40.819Z,700
2018-09-14T09:15:00.986Z,704
2018-09-14T09:15:21.166Z,700
2018-09-14T09:15:41.332Z,692
2018-09-14T09:16:01.491Z,672
2018-09-14T09:16:21.648Z,648
2018-09-14T09:16:41.784Z,620
2018-09-14T09:17:01.945Z,604
2018-09-14T09:17:22.065Z,580
2018-09-14T09:17:42.254Z,552
2018-09-14T09:18:02.553Z,532
2018-09-14T09:18:22.752Z,528
2018-09-14T09:18:42.903Z,524
2018-09-14T09:19:03.065Z,536
2018-09-14T09:19:23.333Z,544
2018-09-14T09:19:43.458Z,556
2018-09-14T09:20:03.617Z,568
2018-09-14T09:20:23.815Z,584
2018-09-14T09:20:44.008Z,600
2018-09-14T09:21:04.166Z,604
2018-09-14T09:21:24.463Z,584
2018-09-14T09:21:44.612Z,520
2018-09-14T09:22:04.803Z,460
2018-09-14T09:22:24.948Z,412
2018-09-14T09:22:45.132Z,388
2018-09-14T09:23:05.335Z,376
2018-09-14T09:23:25.578Z,384
2018-09-14T09:23:45.870Z,384
2018-09-14T09:24:06.035Z,392
2018-09-14T09:24:26.191Z,396
2018-09-14T09:24:46.395Z,400
2018-09-14T09:25:06.511Z,388
2018-09-14T09:25:26.707Z,388
2018-09-14T09:25:46.845Z,392
2018-09-14T09:26:07.032Z,400
2018-09-14T09:26:27.591Z,404
2018-09-14T09:26:47.650Z,412
2018-09-14T09:27:07.819Z,428
2018-09-14T09:27:27.961Z,456
2018-09-14T09:27:48.110Z,484
2018-09-14T09:28:08.295Z,500
2018-09-14T09:28:28.438Z,508
2018-09-14T09:28:48.629Z,552
2018-09-14T09:29:08.824Z,600
2018-09-14T09:29:29.067Z,628
2018-09-14T09:29:49.550Z,656
2018-09-14T09:30:09.755Z,700
2018-09-14T09:30:29.966Z,764
2018-09-14T09:30:50.091Z,824
2018-09-14T09:31:10.354Z,844
2018-09-14T09:31:30.549Z,900
2018-09-14T09:31:50.808Z,924
2018-09-14T09:32:10.990Z,948
2018-09-14T09:32:31.174Z,964
2018-09-14T09:32:51.313Z,988
2018-09-14T09:33:11.468Z,1008
2018-09-14T09:33:31.656Z,1000
2018-09-14T09:33:51.805Z,956
2018-09-14T09:34:11.990Z,916
2018-09-14T09:34:32.150Z,884
2018-09-14T09:34:52.302Z,876
2018-09-14T09:35:12.464Z,892
2018-09-14T09:35:32.671Z,888
2018-09-14T09:35:52.851Z,872
2018-09-14T09:36:13.691Z,828
2018-09-14T09:36:33.902Z,796
2018-09-14T09:36:54.063Z,772
2018-09-14T09:37:14.221Z,728
2018-09-14T09:37:34.372Z,736
2018-09-14T09:37:54.563Z,716
2018-09-14T09:38:14.714Z,688
2018-09-14T09:38:34.861Z,672
2018-09-14T09:38:55.038Z,664
2018-09-14T09:39:15.228Z,656
2018-09-14T09:39:35.395Z,656
2018-09-14T09:39:55.562Z,656
2018-09-14T09:40:15.848Z,664
2018-09-14T09:40:36.003Z,684
2018-09-14T09:40:56.137Z,752
2018-09-14T09:41:16.398Z,812
2018-09-14T09:41:36.547Z,848
2018-09-14T09:41:56.708Z,860
2018-09-14T09:42:16.871Z,876
2018-09-14T09:42:37.036Z,872
2018-09-14T09:42:57.251Z,884
2018-09-14T09:43:17.798Z,884
2018-09-14T09:43:38.361Z,880
2018-09-14T09:43:58.384Z,888
2018-09-14T09:44:18.521Z,876
2018-09-14T09:44:38.677Z,872
2018-09-14T09:44:58.853Z,876
2018-09-14T09:45:18.989Z,860
2018-09-14T09:45:39.218Z,856
2018-09-14T09:45:59.399Z,852
2018-09-14T09:46:19.567Z,824
2018-09-14T09:46:39.707Z,784
2018-09-14T09:46:59.893Z,744
2018-09-14T09:47:20.084Z,704
2018-09-14T09:47:40.315Z,668
2018-09-14T09:48:00.532Z,628
2018-09-14T09:48:20.691Z,592
2018-09-14T09:48:40.851Z,576
2018-09-14T09:49:00.998Z,560
2018-09-14T09:49:21.165Z,540
2018-09-14T09:49:41.344Z,512
2018-09-14T09:50:01.478Z,500
2018-09-14T09:50:21.626Z,496
2018-09-14T09:50:41.912Z,508
2018-09-14T09:51:02.369Z,516
2018-09-14T09:51:22.564Z,532
2018-09-14T09:51:42.634Z,548
2018-09-14T09:52:02.799Z,548
2018-09-14T09:52:22.946Z,584
2018-09-14T09:52:43.089Z,640
2018-09-14T09:53:03.230Z,692
2018-09-14T09:53:23.386Z,704
2018-09-14T09:53:43.629Z,708
2018-09-14T09:54:03.828Z,692
2018-09-14T09:54:23.964Z,712
2018-09-14T09:54:44.117Z,800
2018-09-14T09:55:04.275Z,836
2018-09-14T09:55:24.373Z,796
2018-09-14T09:55:44.590Z,800
2018-09-14T09:56:04.759Z,792
2018-09-14T09:56:25.036Z,840
2018-09-14T09:56:45.308Z,864
2018-09-14T09:57:05.555Z,820
2018-09-14T09:57:25.725Z,776
2018-09-14T09:57:45.903Z,752
2018-09-14T09:58:06.090Z,728
2018-09-14T09:58:26.252Z,732
2018-09-14T09:58:46.420Z,760
2018-09-14T09:59:06.579Z,780
2018-09-14T09:59:26.760Z,776
2018-09-14T09:59:46.917Z,780
2018-09-14T10:00:07.093Z,772
2018-09-14T10:00:27.272Z,704
2018-09-14T10:00:47.432Z,708
2018-09-14T10:01:07.594Z,760
2018-09-14T10:01:27.733Z,756
2018-09-14T10:01:47.855Z,732
2018-09-14T10:02:08.029Z,712
2018-09-14T10:02:28.192Z,692
2018-09-14T10:02:48.338Z,696
2018-09-14T10:03:08.507Z,676
2018-09-14T10:03:28.700Z,624
2018-09-14T10:03:49.352Z,584
2018-09-14T10:04:09.718Z,592
2018-09-14T10:04:29.979Z,616
2018-09-14T10:04:50.131Z,632
2018-09-14T10:05:10.314Z,620
2018-09-14T10:05:30.472Z,608
2018-09-14T10:05:50.631Z,608
2018-09-14T10:06:10.786Z,612
2018-09-14T10:06:30.952Z,584
2018-09-14T10:06:51.187Z,540
2018-09-14T10:07:11.346Z,496
2018-09-14T10:07:31.499Z,484
2018-09-14T10:07:51.690Z,512
2018-09-14T10:08:11.835Z,556
2018-09-14T10:08:31.998Z,608
2018-09-14T10:08:52.153Z,632
2018-09-14T10:09:12.312Z,652
2018-09-14T10:09:32.507Z,696
2018-09-14T10:09:52.639Z,744
2018-09-14T10:10:12.788Z,764
2018-09-14T10:10:32.932Z,756
2018-09-14T10:10:53.135Z,744
2018-09-14T10:11:13.295Z,692
2018-09-14T10:11:33.444Z,632
2018-09-14T10:11:53.612Z,640
2018-09-14T10:12:13.788Z,640
2018-09-14T10:12:33.916Z,664
2018-09-14T10:12:54.082Z,660
2018-09-14T10:13:14.237Z,628
2018-09-14T10:13:34.416Z,616
2018-09-14T10:13:54.557Z,624
2018-09-14T10:14:14.896Z,604
2018-09-14T10:14:34.994Z,584
2018-09-14T10:14:55.177Z,564
2018-09-14T10:15:15.306Z,552
2018-09-14T10:15:35.456Z,544
2018-09-14T10:15:55.618Z,552
2018-09-14T10:16:15.779Z,572
2018-09-14T10:16:35.931Z,580
2018-09-14T10:16:56.072Z,580
2018-09-14T10:17:16.232Z,572
2018-09-14T10:17:36.390Z,572
2018-09-14T10:17:56.554Z,556
2018-09-14T10:18:16.702Z,560
2018-09-14T10:18:36.875Z,588
2018-09-14T10:18:57.015Z,616
2018-09-14T10:19:17.176Z,640
2018-09-14T10:19:37.332Z,660
2018-09-14T10:19:57.491Z,704
2018-09-14T10:20:17.687Z,716
2018-09-14T10:20:37.847Z,712
2018-09-14T10:20:58.134Z,684
2018-09-14T10:21:18.580Z,660
2018-09-14T10:21:38.649Z,640
2018-09-14T10:21:58.796Z,628
2018-09-14T10:22:18.951Z,620
2018-09-14T10:22:39.104Z,620
2018-09-14T10:22:59.287Z,616
2018-09-14T10:23:19.439Z,604
2018-09-14T10:23:39.596Z,576
2018-09-14T10:23:59.729Z,568
2018-09-14T10:24:19.870Z,576
2018-09-14T10:24:40.034Z,572
2018-09-14T10:25:00.214Z,568
2018-09-14T10:25:20.360Z,592
2018-09-14T10:25:40.529Z,604
2018-09-14T10:26:00.663Z,600
2018-09-14T10:26:20.803Z,608
2018-09-14T10:26:40.973Z,612
2018-09-14T10:27:01.130Z,632
2018-09-14T10:27:21.303Z,636
2018-09-14T10:27:41.475Z,628
2018-09-14T10:28:01.655Z,592
2018-09-14T10:28:21.816Z,560
2018-09-14T10:28:41.958Z,516
2018-09-14T10:29:02.262Z,508
2018-09-14T10:29:22.297Z,528
2018-09-14T10:29:42.455Z,548
2018-09-14T10:30:02.597Z,560
2018-09-14T10:30:22.779Z,576
2018-09-14T10:30:42.940Z,616
2018-09-14T10:31:03.097Z,644
2018-09-14T10:31:23.260Z,660
2018-09-14T10:31:43.422Z,704
2018-09-14T10:32:03.573Z,764
2018-09-14T10:32:23.717Z,844
2018-09-14T10:32:43.872Z,924
2018-09-14T10:33:04.024Z,984
2018-09-14T10:33:24.185Z,1012
2018-09-14T10:33:44.347Z,1044
2018-09-14T10:34:04.551Z,1100
2018-09-14T10:34:24.698Z,1152
2018-09-14T10:34:44.841Z,1204
2018-09-14T10:35:05.013Z,1216
2018-09-14T10:35:25.191Z,1200
2018-09-14T10:35:45.338Z,1208
2018-09-14T10:36:05.491Z,1200
2018-09-14T10:36:25.663Z,1180
2018-09-14T10:36:45.813Z,1156
2018-09-14T10:37:06.125Z,1140
2018-09-14T10:37:26.193Z,1128
2018-09-14T10:37:46.393Z,1104
2018-09-14T10:38:06.615Z,1072
2018-09-14T10:38:27.733Z,1048
2018-09-14T10:38:48.626Z,1000
2018-09-14T10:39:08.932Z,932
2018-09-14T10:39:29.085Z,864
2018-09-14T10:39:49.467Z,784
2018-09-14T10:40:10.174Z,716
2018-09-14T10:40:31.267Z,676
2018-09-14T10:40:51.738Z,664
2018-09-14T10:41:11.875Z,652
2018-09-14T10:41:32.045Z,640
2018-09-14T10:41:52.221Z,648
2018-09-14T10:42:12.563Z,648
2018-09-14T10:42:33.063Z,648
2018-09-14T10:42:53.353Z,652
2018-09-14T10:43:13.384Z,676
2018-09-14T10:43:33.545Z,712
2018-09-14T10:43:53.711Z,756
2018-09-14T10:44:13.878Z,796
2018-09-14T10:44:34.030Z,812
2018-09-14T10:44:54.171Z,804
2018-09-14T10:45:14.772Z,808
2018-09-14T10:45:34.885Z,832
2018-09-14T10:45:55.034Z,868
2018-09-14T10:46:15.374Z,892
2018-09-14T10:46:35.566Z,912
2018-09-14T10:46:55.731Z,916
2018-09-14T10:47:15.882Z,880
2018-09-14T10:47:36.006Z,848
2018-09-14T10:47:56.151Z,792
2018-09-14T10:48:16.330Z,724
2018-09-14T10:48:36.539Z,652
2018-09-14T10:48:56.735Z,628
2018-09-14T10:49:16.845Z,648
2018-09-14T10:49:36.987Z,712
2018-09-14T10:49:57.177Z,784
2018-09-14T10:50:17.298Z,848
2018-09-14T10:50:37.462Z,884
2018-09-14T10:50:57.628Z,916
2018-09-14T10:51:17.786Z,940
2018-09-14T10:51:37.980Z,956
2018-09-14T10:51:58.115Z,956
2018-09-14T10:52:18.268Z,928
